createdAt,value
2023-03-06T00:02:53.900Z,68.93
2023-03-06T00:05:57.551Z,67.93
2023-03-06T00:08:59.713Z,65.75
2023-03-06T00:12:01.151Z,76.22
2023-03-06T00:15:05.483Z,61.78
2023-03-06T00:18:07.244Z,57.72
2023-03-06T00:21:08.918Z,59.92
2023-03-06T00:24:10.323Z,55.33
2023-03-06T00:27:11.840Z,64.72
2023-03-06T00:30:15.959Z,62.67
2023-03-06T00:33:17.341Z,61.88
2023-03-06T00:36:18.859Z,58.97
2023-03-06T00:39:20.486Z,61.67
2023-03-06T00:42:22.079Z,63.13
2023-03-06T00:45:23.632Z,58.33
2023-03-06T00:48:25.072Z,60.37
2023-03-06T00:51:26.847Z,57.45
2023-03-06T00:54:28.312Z,58.30
2023-03-06T00:57:29.872Z,54.97
2023-03-06T01:03:33.841Z,64.10
2023-03-06T01:06:35.650Z,64.55
2023-03-06T01:09:38.085Z,57.15
2023-03-06T01:12:39.596Z,62.10
2023-03-06T01:15:41.197Z,55.60
2023-03-06T01:18:42.817Z,53.10
2023-03-06T01:21:44.614Z,62.63
2023-03-06T01:24:46.068Z,64.77
2023-03-06T01:27:48.689Z,54.50
2023-03-06T01:30:51.112Z,54.67
2023-03-06T01:33:53.097Z,55.55
2023-03-06T01:36:54.538Z,54.37
2023-03-06T01:39:56.305Z,50.80
2023-03-06T01:42:57.760Z,52.33
2023-03-06T01:46:41.890Z,52.42
2023-03-06T01:49:43.528Z,55.60
2023-03-06T01:52:52.702Z,49.97
2023-03-06T01:55:55.053Z,48.80
2023-03-06T01:58:58.092Z,49.80
2023-03-06T02:02:01.939Z,50.17
2023-03-06T02:05:05.025Z,54.47
2023-03-06T02:08:07.602Z,46.38
2023-03-06T02:11:14.171Z,50.05
2023-03-06T02:14:17.188Z,49.40
2023-03-06T02:17:21.636Z,50.35
2023-03-06T02:20:32.338Z,45.28
2023-03-06T02:23:47.878Z,53.90
2023-03-06T02:26:50.164Z,48.80
2023-03-06T02:32:53.279Z,59.17
2023-03-06T02:35:59.080Z,52.97
2023-03-06T02:39:01.625Z,54.65
2023-03-06T02:42:03.034Z,47.08
2023-03-06T02:45:11.022Z,46.35
2023-03-06T02:48:14.559Z,46.03
2023-03-06T02:51:16.061Z,51.58
2023-03-06T02:54:18.418Z,48.38
2023-03-06T02:57:20.319Z,48.20
2023-03-06T03:00:22.145Z,48.00
2023-03-06T03:03:23.874Z,46.55
2023-03-06T03:06:27.564Z,49.28
2023-03-06T03:09:29.345Z,53.60
2023-03-06T03:12:32.120Z,54.17
2023-03-06T03:15:34.330Z,53.38
2023-03-06T03:18:36.146Z,50.67
2023-03-06T03:21:38.886Z,49.75
2023-03-06T03:24:40.532Z,50.03
2023-03-06T03:27:41.963Z,42.92
2023-03-06T03:30:44.421Z,54.58
2023-03-06T03:33:47.209Z,48.10
2023-03-06T03:36:49.189Z,51.17
2023-03-06T03:42:52.907Z,55.15
2023-03-06T03:45:55.485Z,48.78
2023-03-06T03:48:58.487Z,56.58
2023-03-06T03:52:01.075Z,47.60
2023-03-06T03:55:06.347Z,48.95
2023-03-06T03:58:07.852Z,41.47
2023-03-06T04:01:09.427Z,45.77
2023-03-06T04:07:14.502Z,50.15
2023-03-06T04:10:16.647Z,50.28
2023-03-06T04:13:20.902Z,50.03
2023-03-06T04:16:23.230Z,51.92
2023-03-06T04:19:25.855Z,52.42
2023-03-06T04:22:28.151Z,56.35
2023-03-06T04:25:29.996Z,52.70
2023-03-06T04:28:33.041Z,55.90
2023-03-06T04:31:34.725Z,51.67
2023-03-06T04:34:36.448Z,52.83
2023-03-06T04:37:37.899Z,56.20
2023-03-06T04:40:40.237Z,51.75
2023-03-06T04:43:41.843Z,50.10
2023-03-06T04:46:43.276Z,52.80
2023-03-06T04:49:44.664Z,53.33
2023-03-06T04:52:46.306Z,52.25
2023-03-06T04:55:47.766Z,57.20
2023-03-06T04:58:49.302Z,52.55
2023-03-06T05:01:51.103Z,55.27
2023-03-06T05:04:52.525Z,58.17
2023-03-06T05:07:54.346Z,49.65
2023-03-06T05:10:58.269Z,51.85
2023-03-06T05:14:00.458Z,54.58
2023-03-06T05:17:01.871Z,58.58
2023-03-06T05:20:06.165Z,58.67
2023-03-06T05:23:07.601Z,55.50
2023-03-06T05:26:11.275Z,60.23
2023-03-06T05:29:12.840Z,58.78
2023-03-06T05:32:16.800Z,59.43
2023-03-06T05:35:21.141Z,54.90
2023-03-06T05:38:23.096Z,56.70
2023-03-06T05:41:24.536Z,61.13
2023-03-06T05:44:31.166Z,60.53
2023-03-06T05:47:32.953Z,55.35
2023-03-06T05:50:34.555Z,63.03
2023-03-06T05:53:35.975Z,63.17
2023-03-06T05:56:37.383Z,70.03
2023-03-06T05:59:38.757Z,61.65
2023-03-06T06:02:41.165Z,66.18
2023-03-06T06:08:44.195Z,69.25
2023-03-06T06:11:45.616Z,65.32
2023-03-06T06:14:47.188Z,60.72
2023-03-06T06:17:48.627Z,64.37
2023-03-06T06:20:50.058Z,69.53
2023-03-06T06:23:51.531Z,73.65
2023-03-06T06:26:54.789Z,66.82
2023-03-06T06:29:56.215Z,61.35
2023-03-06T06:32:57.828Z,61.87
2023-03-06T06:35:59.274Z,62.00
2023-03-06T06:39:00.751Z,61.87
2023-03-06T06:42:26.555Z,64.50
2023-03-06T06:45:25.569Z,62.35
2023-03-06T06:48:26.963Z,64.03
2023-03-06T06:51:32.544Z,60.25
2023-03-06T06:54:34.715Z,55.38
2023-03-06T06:57:36.173Z,60.25
2023-03-06T07:00:37.647Z,64.30
2023-03-06T07:03:40.402Z,64.70
2023-03-06T07:06:42.746Z,56.22
2023-03-06T07:12:45.686Z,53.58
2023-03-06T07:15:47.344Z,58.28
2023-03-06T07:18:48.912Z,60.38
2023-03-06T07:21:50.962Z,60.00
2023-03-06T07:24:52.393Z,67.40
2023-03-06T07:27:54.766Z,67.72
2023-03-06T07:33:57.663Z,66.78
2023-03-06T07:36:59.079Z,68.30
2023-03-06T07:40:00.461Z,77.55
2023-03-06T07:43:18.400Z,75.53
2023-03-06T07:46:24.402Z,106.00
2023-03-06T07:49:25.797Z,79.93
2023-03-06T07:52:27.225Z,67.00
2023-03-06T07:55:28.677Z,66.72
2023-03-06T07:58:30.084Z,70.47
2023-03-06T08:01:31.770Z,65.50
2023-03-06T08:04:34.305Z,84.50
2023-03-06T08:10:37.367Z,75.95
2023-03-06T08:13:39.944Z,67.18
2023-03-06T08:16:41.475Z,74.25
2023-03-06T08:19:42.926Z,66.33
2023-03-06T08:22:45.503Z,76.05
2023-03-06T08:25:55.743Z,71.15
2023-03-06T08:28:59.549Z,79.00
2023-03-06T08:32:01.116Z,74.10
2023-03-06T08:35:06.593Z,66.43
2023-03-06T08:38:08.001Z,65.38
2023-03-06T08:41:09.713Z,68.07
2023-03-06T08:44:11.611Z,66.93
2023-03-06T08:47:13.119Z,62.10
2023-03-06T08:50:14.725Z,68.43
2023-03-06T08:53:16.198Z,60.43
2023-03-06T08:56:23.223Z,63.20
2023-03-06T08:59:25.016Z,66.30
2023-03-06T09:02:26.526Z,68.75
2023-03-06T09:05:28.257Z,63.47
2023-03-06T09:08:29.866Z,66.67
2023-03-06T09:11:31.950Z,62.17
2023-03-06T09:14:33.415Z,78.05
2023-03-06T09:17:34.943Z,66.33
2023-03-06T09:20:36.450Z,54.93
2023-03-06T09:23:39.458Z,69.50
2023-03-06T09:26:45.980Z,52.35
2023-03-06T09:29:48.569Z,54.35
2023-03-06T09:32:50.002Z,51.97
2023-03-06T09:35:56.643Z,56.00
2023-03-06T09:38:58.079Z,55.50
2023-03-06T09:41:59.674Z,51.13
2023-03-06T09:45:02.760Z,50.03
2023-03-06T09:48:13.302Z,53.50
2023-03-06T09:51:18.692Z,52.03
2023-03-06T09:54:43.449Z,55.20
2023-03-06T09:57:51.160Z,50.30
2023-03-06T10:00:54.302Z,50.58
2023-03-06T10:04:04.923Z,50.95
2023-03-06T10:07:43.163Z,52.88
2023-03-06T10:10:50.850Z,55.20
2023-03-06T10:14:00.986Z,45.00
2023-03-06T10:17:03.721Z,50.40
2023-03-06T10:20:22.240Z,51.05
2023-03-06T10:23:54.473Z,40.22
2023-03-06T10:27:23.470Z,49.25
2023-03-06T10:30:39.707Z,49.10
2023-03-06T10:33:51.606Z,49.55
2023-03-06T10:36:53.072Z,49.25
2023-03-06T10:40:08.584Z,56.05
2023-03-06T10:43:12.400Z,53.42
2023-03-06T10:46:27.395Z,48.58
2023-03-06T10:49:37.351Z,51.45
2023-03-06T10:52:38.797Z,53.17
2023-03-06T10:55:40.368Z,45.47
2023-03-06T10:58:41.810Z,45.73
2023-03-06T11:01:49.455Z,46.60
2023-03-06T11:04:54.880Z,51.15
2023-03-06T11:08:01.766Z,53.22
2023-03-06T11:11:03.321Z,47.40
2023-03-06T11:14:15.276Z,47.40
2023-03-06T11:17:32.037Z,52.58
2023-03-06T11:20:52.013Z,76.45
2023-03-06T11:23:57.576Z,54.78
2023-03-06T11:27:05.766Z,53.28
2023-03-06T11:30:19.039Z,48.22
2023-03-06T11:33:31.729Z,46.72
2023-03-06T11:36:59.130Z,43.47
2023-03-06T11:40:43.381Z,40.22
2023-03-06T11:44:00.743Z,42.60
2023-03-06T11:47:15.295Z,48.78
2023-03-06T11:50:31.519Z,42.97
2023-03-06T11:53:39.344Z,44.55
2023-03-06T11:56:49.726Z,42.85
2023-03-06T12:00:16.991Z,50.35
2023-03-06T12:03:45.705Z,42.28
2023-03-06T12:07:07.648Z,39.90
2023-03-06T12:10:29.929Z,40.47
2023-03-06T12:13:57.133Z,37.80
2023-03-06T12:17:30.500Z,44.50
2023-03-06T12:20:42.501Z,38.50
2023-03-06T12:23:50.098Z,38.28
2023-03-06T12:27:17.930Z,39.55
2023-03-06T12:31:02.316Z,32.17
2023-03-06T12:34:15.556Z,37.42
2023-03-06T12:37:35.541Z,30.55
2023-03-06T12:41:04.426Z,33.78
2023-03-06T12:44:16.929Z,33.83
2023-03-06T12:50:28.726Z,33.95
2023-03-06T12:53:32.014Z,44.17
2023-03-06T12:56:35.294Z,33.75
2023-03-06T12:59:48.002Z,31.85
2023-03-06T13:03:15.060Z,32.47
2023-03-06T13:06:34.227Z,39.25
2023-03-06T13:10:08.554Z,28.45
2023-03-06T13:13:42.689Z,32.30
2023-03-06T13:16:44.306Z,29.45
2023-03-06T13:19:46.235Z,31.05
2023-03-06T13:22:47.944Z,31.90
2023-03-06T13:25:50.521Z,30.85
2023-03-06T13:28:57.809Z,31.33
2023-03-06T13:32:02.400Z,30.90
2023-03-06T13:35:47.390Z,28.35
2023-03-06T13:38:48.751Z,24.48
2023-03-06T13:42:00.766Z,23.38
2023-03-06T13:45:25.731Z,25.73
2023-03-06T13:48:44.631Z,27.10
2023-03-06T13:52:06.188Z,26.30
2023-03-06T13:55:29.583Z,26.77
2023-03-06T13:58:49.072Z,25.13
2023-03-06T14:02:12.504Z,26.58
2023-03-06T14:05:15.685Z,29.80
2023-03-06T14:08:37.453Z,23.88
2023-03-06T14:11:45.775Z,24.33
2023-03-06T14:14:57.660Z,23.65
2023-03-06T14:18:01.014Z,25.98
2023-03-06T14:21:13.161Z,32.05
2023-03-06T14:24:20.068Z,25.45
2023-03-06T14:27:38.453Z,22.33
2023-03-06T14:30:49.821Z,21.98
2023-03-06T14:33:56.802Z,25.27
2023-03-06T14:37:01.648Z,28.45
2023-03-06T14:40:10.842Z,24.92
2023-03-06T14:43:22.723Z,26.52
2023-03-06T14:46:24.174Z,28.67
2023-03-06T14:49:26.858Z,24.67
2023-03-06T14:52:28.572Z,27.10
2023-03-06T14:55:32.172Z,29.92
2023-03-06T14:58:40.898Z,28.83
2023-03-06T15:01:46.177Z,31.65
2023-03-06T15:04:53.169Z,28.23
2023-03-06T15:08:00.140Z,27.17
2023-03-06T15:11:05.333Z,27.42
2023-03-06T15:14:18.418Z,26.15
2023-03-06T15:17:19.856Z,28.55
2023-03-06T15:20:41.935Z,25.70
2023-03-06T15:23:45.658Z,23.60
2023-03-06T15:26:54.504Z,24.75
2023-03-06T15:29:59.638Z,24.08
2023-03-06T15:33:19.533Z,23.30
2023-03-06T15:36:29.484Z,23.67
2023-03-06T15:39:39.887Z,25.38
2023-03-06T15:42:42.440Z,24.23
2023-03-06T15:45:43.840Z,25.75
2023-03-06T15:48:53.514Z,23.02
2023-03-06T15:51:54.972Z,23.90
2023-03-06T15:54:56.385Z,28.53
2023-03-06T15:58:00.900Z,23.95
2023-03-06T16:01:03.645Z,24.38
2023-03-06T16:04:05.243Z,26.42
2023-03-06T16:07:06.668Z,31.50
2023-03-06T16:10:17.223Z,26.67
2023-03-06T16:13:26.923Z,26.17
2023-03-06T16:16:37.736Z,31.35
2023-03-06T16:19:39.865Z,34.15
2023-03-06T16:22:41.346Z,39.40
2023-03-06T16:25:48.477Z,31.98
2023-03-06T16:28:50.055Z,29.98
2023-03-06T16:31:51.953Z,32.55
2023-03-06T16:34:53.341Z,29.58
2023-03-06T16:37:54.760Z,31.35
2023-03-06T16:40:56.184Z,30.30
2023-03-06T16:43:57.631Z,29.67
2023-03-06T16:47:00.792Z,28.37
2023-03-06T16:50:03.343Z,33.83
2023-03-06T16:53:05.366Z,27.00
2023-03-06T16:56:09.372Z,28.65
2023-03-06T16:59:12.176Z,33.17
2023-03-06T17:02:13.642Z,31.80
2023-03-06T17:05:15.099Z,34.80
2023-03-06T17:08:16.546Z,33.00
2023-03-06T17:11:20.202Z,31.58
2023-03-06T17:14:21.773Z,33.88
2023-03-06T17:17:23.189Z,32.70
2023-03-06T17:20:24.843Z,34.40
2023-03-06T17:23:29.588Z,32.05
2023-03-06T17:26:31.290Z,28.05
2023-03-06T17:29:32.865Z,33.70
2023-03-06T17:32:34.401Z,34.40
2023-03-06T17:35:36.699Z,36.97
2023-03-06T17:38:38.238Z,35.85
2023-03-06T17:41:39.726Z,29.97
2023-03-06T17:44:41.444Z,29.77
2023-03-06T17:47:43.017Z,31.80
2023-03-06T17:50:52.727Z,33.93
2023-03-06T17:53:55.509Z,33.78
2023-03-06T17:57:03.234Z,33.35
2023-03-06T18:00:05.821Z,31.17
2023-03-06T18:03:13.545Z,41.17
2023-03-06T18:06:16.064Z,42.93
2023-03-06T18:12:19.062Z,46.90
2023-03-06T18:15:20.497Z,59.15
2023-03-06T18:18:22.022Z,55.67
2023-03-06T18:21:24.030Z,58.33
2023-03-06T18:24:25.570Z,61.70
2023-03-06T18:27:27.119Z,59.30
2023-03-06T18:30:28.727Z,52.20
2023-03-06T18:33:30.150Z,58.30
2023-03-06T18:36:33.627Z,57.63
2023-03-06T18:39:35.173Z,51.55
2023-03-06T18:42:36.743Z,53.13
2023-03-06T18:45:38.200Z,48.73
2023-03-06T18:48:39.861Z,49.60
2023-03-06T18:51:42.636Z,50.00
2023-03-06T18:54:44.873Z,52.42
2023-03-06T18:57:46.311Z,54.95
2023-03-06T19:00:48.462Z,45.42
2023-03-06T19:03:50.121Z,51.53
2023-03-06T19:06:51.742Z,47.10
2023-03-06T19:09:53.165Z,56.77
2023-03-06T19:12:54.584Z,46.55
2023-03-06T19:15:57.066Z,42.40
2023-03-06T19:22:00.535Z,43.00
2023-03-06T19:25:03.838Z,40.10
2023-03-06T19:28:05.847Z,40.75
2023-03-06T19:31:09.276Z,37.05
2023-03-06T19:34:10.776Z,33.42
2023-03-06T19:37:12.238Z,43.37
2023-03-06T19:40:13.858Z,43.57
2023-03-06T19:43:15.306Z,40.25
2023-03-06T19:46:16.965Z,46.97
2023-03-06T19:49:21.632Z,53.58
2023-03-06T19:52:24.583Z,46.78
2023-03-06T19:55:28.469Z,43.45
2023-03-06T19:58:29.949Z,45.55
2023-03-06T20:01:31.382Z,45.70
2023-03-06T20:04:34.080Z,40.53
2023-03-06T20:07:35.528Z,41.92
2023-03-06T20:10:37.055Z,37.10
2023-03-06T20:13:44.604Z,43.67
2023-03-06T20:16:48.615Z,54.22
2023-03-06T20:19:50.042Z,45.17
2023-03-06T20:22:51.484Z,41.30
2023-03-06T20:25:52.916Z,45.40
2023-03-06T20:28:54.788Z,66.00
2023-03-06T20:31:57.707Z,42.55
2023-03-06T20:34:59.268Z,41.67
2023-03-06T20:38:00.680Z,54.13
2023-03-06T20:41:03.004Z,45.17
2023-03-06T20:44:06.141Z,39.30
2023-03-06T20:47:08.845Z,37.78
2023-03-06T20:50:10.949Z,40.63
2023-03-06T20:53:12.361Z,34.15
2023-03-06T20:56:16.149Z,39.00
2023-03-06T20:59:18.142Z,37.25
2023-03-06T21:02:19.674Z,35.47
2023-03-06T21:05:21.121Z,42.67
2023-03-06T21:08:23.128Z,41.45
2023-03-06T21:11:25.424Z,39.85
2023-03-06T21:14:26.842Z,39.53
2023-03-06T21:17:30.070Z,48.05
2023-03-06T21:20:32.328Z,47.58
2023-03-06T21:23:33.870Z,45.70
2023-03-06T21:26:35.482Z,41.53
2023-03-06T21:29:36.899Z,32.03
2023-03-06T21:32:38.348Z,39.27
2023-03-06T21:35:41.479Z,43.00
2023-03-06T21:38:42.924Z,42.47
2023-03-06T21:41:44.380Z,38.50
2023-03-06T21:44:45.920Z,36.67
2023-03-06T21:47:50.501Z,34.77
2023-03-06T21:50:52.075Z,30.63
2023-03-06T21:53:54.904Z,32.73
2023-03-06T21:56:56.855Z,31.67
2023-03-06T21:59:58.235Z,35.60
2023-03-06T22:02:59.746Z,35.20
2023-03-06T22:06:28.103Z,34.50
2023-03-06T22:09:29.773Z,37.63
2023-03-06T22:12:34.072Z,39.25
2023-03-06T22:15:35.548Z,34.33
2023-03-06T22:18:38.659Z,39.90
2023-03-06T22:21:40.129Z,35.25
2023-03-06T22:24:41.652Z,38.60
2023-03-06T22:27:43.145Z,33.03
2023-03-06T22:30:45.745Z,34.40
2023-03-06T22:33:51.278Z,34.10
2023-03-06T22:36:52.921Z,34.55
2023-03-06T22:39:54.577Z,31.58
2023-03-06T22:42:56.103Z,36.33
2023-03-06T22:46:02.159Z,33.07
2023-03-06T22:49:03.677Z,36.50
2023-03-06T22:52:05.312Z,35.90
2023-03-06T22:55:07.040Z,35.90
2023-03-06T22:58:08.465Z,29.88
2023-03-06T23:01:25.143Z,28.23
2023-03-06T23:04:26.729Z,32.25
2023-03-06T23:07:28.296Z,30.27
2023-03-06T23:10:39.399Z,31.98
2023-03-06T23:13:59.362Z,31.38
2023-03-06T23:17:19.524Z,30.90
2023-03-06T23:20:43.515Z,33.22
2023-03-06T23:24:04.422Z,29.77
2023-03-06T23:27:05.854Z,29.38
2023-03-06T23:30:09.298Z,32.90
2023-03-06T23:33:10.978Z,27.85
2023-03-06T23:36:14.508Z,26.40
2023-03-06T23:39:16.695Z,32.10
2023-03-06T23:42:19.111Z,29.05
2023-03-06T23:48:22.432Z,29.23
2023-03-06T23:51:23.996Z,27.65
2023-03-06T23:54:25.440Z,27.93
2023-03-06T23:57:26.846Z,29.48
